Time;durP1;ratioP1;P1;durP2;ratioP2;P2;SDS_P1;SDS_P2;PMS_P1;PMS_P2;Temp;Humidity;BMP_temperature;BMP_pressure;BME280_temperature;BME280_humidity;BME280_pressure;Samples;Min_cycle;Max_cycle;Signal;HPM_P1;HPM_P2
2023/03/24 00:00:20;;;;;;;10.47;6.10;;;11.10;99.90;;;;;;5034677;28;20461;-48
2023/03/24 00:02:47;;;;;;;7.30;5.37;;;11.10;99.90;;;;;;5034715;28;20508;-48
2023/03/24 00:05:18;;;;;;;10.47;5.27;;;11.10;99.90;;;;;;5034541;28;20449;-48
2023/03/24 00:07:44;;;;;;;8.40;5.60;;;11.20;51.80;;;;;;5034242;28;20455;-48
2023/03/24 00:10:17;;;;;;;11.20;5.03;;;11.20;1.00;;;;;;5033880;28;20413;-48
2023/03/24 00:12:44;;;;;;;11.53;5.53;;;11.20;1.00;;;;;;5034274;28;20767;-48
2023/03/24 00:15:14;;;;;;;8.30;4.90;;;11.20;1.00;;;;;;5033461;28;20495;-48
2023/03/24 00:17:40;;;;;;;13.30;5.27;;;11.20;1.00;;;;;;5034240;28;20472;-48
2023/03/24 00:20:13;;;;;;;11.23;4.40;;;11.30;1.00;;;;;;5034021;28;20429;-48
2023/03/24 00:22:47;;;;;;;8.37;4.07;;;11.30;1.00;;;;;;5034119;28;20186;-48
2023/03/24 00:25:14;;;;;;;9.13;3.73;;;11.20;59.10;;;;;;5034605;28;20452;-48
2023/03/24 00:27:40;;;;;;;7.50;4.53;;;11.20;99.90;;;;;;5033607;28;20547;-48
2023/03/24 00:30:10;;;;;;;14.43;4.70;;;11.20;1.00;;;;;;5034147;28;20436;-48
2023/03/24 00:32:37;;;;;;;8.30;3.90;;;11.20;1.00;;;;;;5033604;28;20464;-48
2023/03/24 00:35:05;;;;;;;8.23;3.40;;;11.30;1.00;;;;;;5034054;28;20520;-47
2023/03/24 00:37:30;;;;;;;6.27;3.57;;;11.20;19.90;;;;;;5033732;28;20511;-48
2023/03/24 00:39:56;;;;;;;5.70;3.37;;;11.20;1.00;;;;;;5033807;28;20947;-48
2023/03/24 00:42:23;;;;;;;6.43;3.53;;;11.20;1.00;;;;;;5033303;28;20652;-48
2023/03/24 00:44:52;;;;;;;5.87;3.70;;;11.20;1.00;;;;;;5033336;28;20631;-50
2023/03/24 00:47:24;;;;;;;5.40;3.93;;;11.20;1.00;;;;;;5033593;28;20986;-48
2023/03/24 00:49:52;;;;;;;7.03;4.00;;;11.10;1.00;;;;;;5033320;28;20790;-48
2023/03/24 00:52:21;;;;;;;10.17;4.00;;;11.20;99.90;;;;;;5033565;28;20433;-47
2023/03/24 00:54:49;;;;;;;7.83;3.80;;;11.10;1.00;;;;;;5033773;28;20420;-48
2023/03/24 00:57:25;;;;;;;7.87;3.70;;;11.10;1.00;;;;;;5032990;28;20471;-49
2023/03/24 00:59:53;;;;;;;7.87;4.00;;;11.20;99.90;;;;;;5033306;28;20471;-47
2023/03/24 01:02:21;;;;;;;5.43;3.63;;;11.10;99.90;;;;;;5033763;28;20432;-47
2023/03/24 01:04:55;;;;;;;11.53;3.93;;;11.00;1.00;;;;;;5033697;28;20413;-47
2023/03/24 01:07:21;;;;;;;7.00;4.40;;;10.90;1.00;;;;;;5033437;28;20417;-47
2023/03/24 01:09:56;;;;;;;6.17;4.00;;;10.90;1.00;;;;;;5033363;28;20436;-47
2023/03/24 01:12:26;;;;;;;11.23;4.57;;;10.90;1.00;;;;;;5033807;28;20416;-48
2023/03/24 01:14:52;;;;;;;7.30;4.53;;;10.80;5.20;;;;;;5033116;28;20425;-47
2023/03/24 01:17:24;;;;;;;10.80;4.23;;;10.80;99.90;;;;;;5033047;28;20964;-47
2023/03/24 01:19:54;;;;;;;7.70;4.50;;;10.80;99.90;;;;;;5033121;28;20412;-47
2023/03/24 01:22:21;;;;;;;8.20;4.20;;;10.80;99.90;;;;;;5033407;28;20779;-47
2023/03/24 01:24:48;;;;;;;9.80;4.30;;;10.70;1.00;;;;;;5033450;28;20420;-47
2023/03/24 01:27:14;;;;;;;10.40;4.00;;;10.70;96.90;;;;;;5037154;28;20429;-47
2023/03/24 01:29:41;;;;;;;11.40;3.83;;;10.80;99.90;;;;;;5036678;28;20491;-47
2023/03/24 01:32:07;;;;;;;9.50;4.30;;;10.80;99.90;;;;;;5036988;28;20818;-47
2023/03/24 01:34:33;;;;;;;7.93;4.50;;;10.70;99.90;;;;;;5037029;28;20456;-47
2023/03/24 01:37:00;;;;;;;8.10;4.40;;;10.70;99.90;;;;;;5036609;28;21006;-47
2023/03/24 01:39:26;;;;;;;6.70;4.10;;;10.60;1.00;;;;;;5036951;28;20424;-47
2023/03/24 01:41:52;;;;;;;8.80;4.40;;;10.60;1.00;;;;;;5036680;28;20432;-47
2023/03/24 01:44:33;;;;;;;9.90;3.87;;;10.60;1.00;;;;;;5036550;28;20245;-49
2023/03/24 01:47:00;;;;;;;6.87;4.23;;;10.60;1.00;;;;;;5036909;28;20440;-47
2023/03/24 01:49:33;;;;;;;6.70;4.10;;;10.70;1.00;;;;;;5036441;28;20792;-47
2023/03/24 01:52:01;;;;;;;8.57;4.40;;;10.60;1.00;;;;;;5037111;28;20405;-47
2023/03/24 01:54:35;;;;;;;8.03;4.23;;;10.60;1.00;;;;;;5036287;28;20489;-47
2023/03/24 01:57:09;;;;;;;9.40;4.77;;;10.60;1.00;;;;;;5036342;28;20457;-47
2023/03/24 01:59:37;;;;;;;8.57;4.30;;;10.60;1.00;;;;;;5036052;28;20487;-47
2023/03/24 02:02:05;;;;;;;6.70;4.67;;;10.60;1.00;;;;;;5036294;28;20421;-47
2023/03/24 02:04:37;;;;;;;8.47;4.60;;;10.60;1.00;;;;;;5036119;28;20428;-47
2023/03/24 02:07:11;;;;;;;7.20;4.87;;;10.50;1.00;;;;;;5036280;28;20405;-47
2023/03/24 02:09:36;;;;;;;5.80;4.20;;;10.50;1.00;;;;;;5036868;28;20405;-47
2023/03/24 02:12:02;;;;;;;9.03;5.53;;;10.50;1.00;;;;;;5036454;28;20767;-47
2023/03/24 02:14:28;;;;;;;12.23;4.87;;;10.60;1.00;;;;;;5036104;28;20689;-47
2023/03/24 02:17:21;;;;;;;7.90;4.53;;;10.60;1.00;;;;;;5036006;28;20225;-46
2023/03/24 02:20:22;;;;;;;7.57;4.50;;;10.50;1.00;;;;;;5036464;28;20492;-47
2023/03/24 02:23:18;;;;;;;11.47;5.33;;;10.60;1.00;;;;;;5024661;28;20429;-47
2023/03/24 02:25:55;;;;;;;8.67;5.67;;;10.50;1.00;;;;;;5036314;28;20411;-47
2023/03/24 02:28:50;;;;;;;6.40;4.73;;;10.40;13.20;;;;;;5036175;28;20810;-47
2023/03/24 02:31:27;;;;;;;7.37;4.80;;;10.40;40.80;;;;;;5036210;28;20413;-47
2023/03/24 02:34:27;;;;;;;10.87;4.70;;;10.50;70.00;;;;;;5036225;28;20415;-47
2023/03/24 02:37:17;;;;;;;8.80;4.90;;;10.50;80.70;;;;;;5023067;28;20493;-47
2023/03/24 02:39:46;;;;;;;8.00;4.63;;;10.50;75.80;;;;;;5035588;28;20406;-48
2023/03/24 02:42:22;;;;;;;10.43;4.60;;;10.50;77.60;;;;;;5035861;28;20416;-47
2023/03/24 02:45:10;;;;;;;12.93;6.40;;;10.50;87.30;;;;;;5035493;28;20933;-47
2023/03/24 02:47:46;;;;;;;9.47;5.27;;;10.50;93.90;;;;;;5036087;28;20408;-47
2023/03/24 02:50:30;;;;;;;7.13;4.33;;;10.50;96.90;;;;;;5035587;28;20934;-47
2023/03/24 02:53:00;;;;;;;8.20;4.77;;;10.40;99.90;;;;;;5035414;28;20516;-47
2023/03/24 02:55:35;;;;;;;6.30;4.80;;;10.50;99.90;;;;;;5035099;28;20408;-47
2023/03/24 02:58:04;;;;;;;10.50;5.20;;;10.50;99.90;;;;;;5035516;28;20896;-47
2023/03/24 03:00:40;;;;;;;10.67;4.53;;;10.40;99.90;;;;;;5035564;28;20467;-47
2023/03/24 03:03:17;;;;;;;7.03;4.83;;;10.50;99.90;;;;;;5035830;28;20480;-47
2023/03/24 03:06:00;;;;;;;8.13;5.00;;;10.50;99.90;;;;;;5035098;28;20931;-46
2023/03/24 03:08:31;;;;;;;8.17;4.63;;;10.40;99.90;;;;;;5035205;28;20405;-47
2023/03/24 03:11:00;;;;;;;10.33;5.37;;;10.40;99.90;;;;;;5035519;28;20413;-49
2023/03/24 03:13:30;;;;;;;9.37;5.30;;;10.40;99.90;;;;;;5035260;28;20416;-47
2023/03/24 03:16:02;;;;;;;5.70;4.73;;;10.50;99.90;;;;;;5035166;28;20546;-48
2023/03/24 03:18:50;;;;;;;7.97;4.90;;;10.50;99.90;;;;;;5034834;28;20803;-47
2023/03/24 03:21:19;;;;;;;6.53;5.33;;;10.60;99.90;;;;;;5034988;28;20441;-47
2023/03/24 03:23:56;;;;;;;12.60;6.00;;;10.50;99.90;;;;;;5035290;28;20810;-47
2023/03/24 03:26:25;;;;;;;10.80;5.50;;;10.50;99.90;;;;;;5034832;28;20448;-46
2023/03/24 03:28:56;;;;;;;7.00;5.30;;;10.50;99.90;;;;;;5034556;28;20427;-48
2023/03/24 03:31:30;;;;;;;6.53;4.73;;;10.60;99.90;;;;;;5034999;28;20428;-47
2023/03/24 03:34:28;;;;;;;11.60;5.70;;;10.60;99.90;;;;;;5034743;28;20867;-47
2023/03/24 03:37:05;;;;;;;5.70;5.10;;;10.50;99.90;;;;;;5022343;28;20503;-47
2023/03/24 03:39:36;;;;;;;10.30;5.90;;;10.50;99.90;;;;;;5034841;28;20439;-47
2023/03/24 03:42:03;;;;;;;9.30;5.67;;;10.50;99.90;;;;;;5034769;28;20405;-47
2023/03/24 03:44:30;;;;;;;8.40;5.40;;;10.60;99.90;;;;;;5034381;28;20469;-47
2023/03/24 03:46:56;;;;;;;7.70;5.17;;;10.60;99.90;;;;;;5034837;28;20432;-47
2023/03/24 03:49:21;;;;;;;7.83;5.13;;;10.60;99.90;;;;;;5033816;28;20421;-47
2023/03/24 03:51:49;;;;;;;10.40;6.10;;;10.60;99.90;;;;;;5034490;28;20185;-47
2023/03/24 03:54:16;;;;;;;11.13;5.90;;;10.60;99.90;;;;;;5034111;28;20637;-47
2023/03/24 03:56:42;;;;;;;9.40;6.30;;;10.70;99.90;;;;;;5034006;28;20460;-47
2023/03/24 03:59:22;;;;;;;11.40;6.70;;;10.60;99.90;;;;;;5034230;28;20500;-47
2023/03/24 04:01:48;;;;;;;12.03;6.30;;;10.70;99.90;;;;;;5034053;28;20444;-47
2023/03/24 04:04:25;;;;;;;7.97;5.40;;;10.90;99.90;;;;;;5033956;28;20428;-47
2023/03/24 04:07:21;;;;;;;7.63;5.50;;;11.00;99.90;;;;;;5034410;28;20408;-47
2023/03/24 04:09:47;;;;;;;8.50;5.13;;;11.00;99.90;;;;;;5033857;28;20461;-47
2023/03/24 04:12:24;;;;;;;7.40;5.00;;;11.10;99.90;;;;;;5034090;28;20501;-48
2023/03/24 04:15:13;;;;;;;8.00;5.70;;;11.10;99.90;;;;;;5033890;28;20175;-48
2023/03/24 04:17:45;;;;;;;6.10;5.50;;;11.10;99.90;;;;;;5034121;28;20461;-47
2023/03/24 04:20:23;;;;;;;9.93;5.20;;;11.10;99.90;;;;;;5033959;28;20436;-47
2023/03/24 04:22:52;;;;;;;6.87;5.33;;;11.20;99.90;;;;;;5034209;28;20409;-47
2023/03/24 04:25:39;;;;;;;6.90;5.60;;;11.20;99.90;;;;;;5033435;28;20974;-48
2023/03/24 04:28:37;;;;;;;6.07;5.07;;;11.20;99.90;;;;;;5033886;28;20756;-47
2023/03/24 04:31:36;;;;;;;7.93;5.00;;;11.30;99.90;;;;;;5032187;28;20471;-47
2023/03/24 04:34:19;;;;;;;7.03;5.13;;;11.30;99.90;;;;;;5033408;28;20460;-47
2023/03/24 04:36:53;;;;;;;6.40;4.73;;;11.40;99.90;;;;;;5033795;28;20492;-47
2023/03/24 04:39:26;;;;;;;8.20;5.50;;;11.40;99.90;;;;;;5033907;28;20417;-47
2023/03/24 04:41:55;;;;;;;7.70;4.80;;;11.40;99.90;;;;;;5033954;28;20449;-47
2023/03/24 04:44:22;;;;;;;9.90;5.50;;;11.40;99.90;;;;;;5033005;28;20984;-48
2023/03/24 04:46:50;;;;;;;7.60;5.47;;;11.40;99.90;;;;;;5033694;28;20424;-47
2023/03/24 04:49:18;;;;;;;10.40;6.37;;;11.50;99.90;;;;;;5033338;28;20425;-47
2023/03/24 04:51:44;;;;;;;7.07;5.10;;;11.40;99.90;;;;;;5033898;28;20820;-47
2023/03/24 04:54:10;;;;;;;8.37;5.10;;;11.40;99.90;;;;;;5033473;28;20413;-48
2023/03/24 04:56:47;;;;;;;7.03;5.20;;;11.40;99.90;;;;;;5033654;28;20815;-47
2023/03/24 04:59:14;;;;;;;8.83;5.97;;;11.40;99.90;;;;;;5033236;28;20432;-47
2023/03/24 05:01:40;;;;;;;9.47;5.97;;;11.40;99.90;;;;;;5039413;28;20416;-47
2023/03/24 05:04:07;;;;;;;7.03;5.90;;;11.40;99.90;;;;;;5040154;28;20496;-46
2023/03/24 05:06:32;;;;;;;11.53;6.00;;;11.40;99.90;;;;;;5040115;28;20507;-47
2023/03/24 05:08:58;;;;;;;11.00;5.93;;;11.40;99.90;;;;;;5040112;28;20451;-49
2023/03/24 05:11:27;;;;;;;8.60;6.10;;;11.40;99.90;;;;;;5040402;28;20213;-47
2023/03/24 05:13:54;;;;;;;6.20;5.43;;;11.50;99.90;;;;;;5040149;28;20511;-47
2023/03/24 05:16:20;;;;;;;8.57;5.83;;;11.50;99.90;;;;;;5039804;28;20860;-47
2023/03/24 05:18:45;;;;;;;7.03;6.07;;;11.50;99.90;;;;;;5040252;28;20421;-47
2023/03/24 05:21:12;;;;;;;7.23;5.83;;;11.50;99.90;;;;;;5039705;28;20420;-46
2023/03/24 05:23:37;;;;;;;8.80;5.50;;;11.50;99.90;;;;;;5040256;28;20189;-47
2023/03/24 05:26:04;;;;;;;8.10;5.30;;;11.50;99.90;;;;;;5040257;28;20420;-47
2023/03/24 05:28:30;;;;;;;7.80;5.77;;;11.50;99.90;;;;;;5039861;28;20209;-47
2023/03/24 05:30:55;;;;;;;6.63;5.07;;;11.60;99.90;;;;;;5040153;28;20441;-47
2023/03/24 05:33:21;;;;;;;5.63;5.13;;;11.50;99.90;;;;;;5039991;28;20233;-47
2023/03/24 05:35:47;;;;;;;6.87;5.40;;;11.60;99.90;;;;;;5039512;28;20240;-47
2023/03/24 05:38:13;;;;;;;5.50;5.00;;;11.60;99.90;;;;;;5039716;28;20654;-47
2023/03/24 05:40:38;;;;;;;5.27;4.83;;;11.60;99.90;;;;;;5039774;28;20182;-47
2023/03/24 05:43:04;;;;;;;5.10;4.60;;;11.60;99.90;;;;;;5039398;28;20753;-47
2023/03/24 05:45:30;;;;;;;7.00;5.30;;;11.70;99.90;;;;;;5039708;28;20558;-47
2023/03/24 05:47:55;;;;;;;6.60;5.30;;;11.70;99.90;;;;;;5039720;28;20504;-47
2023/03/24 05:50:23;;;;;;;5.57;5.07;;;11.70;99.90;;;;;;5039725;28;20182;-47
2023/03/24 05:52:48;;;;;;;6.30;4.97;;;11.70;99.90;;;;;;5039558;28;20222;-47
2023/03/24 05:55:14;;;;;;;5.50;5.00;;;11.70;99.90;;;;;;5039388;28;20433;-47
2023/03/24 05:57:42;;;;;;;5.40;4.90;;;11.70;99.90;;;;;;5039627;28;20263;-47
2023/03/24 06:00:13;;;;;;;5.70;4.90;;;11.70;99.90;;;;;;5039747;28;20519;-48
2023/03/24 06:02:39;;;;;;;8.57;4.83;;;11.70;99.90;;;;;;5039707;28;20413;-47
2023/03/24 06:05:06;;;;;;;8.03;5.40;;;11.70;99.90;;;;;;5039486;28;20555;-47
2023/03/24 06:07:32;;;;;;;6.30;5.30;;;11.70;99.90;;;;;;5039889;28;20186;-47
2023/03/24 06:10:01;;;;;;;8.33;5.20;;;11.80;99.90;;;;;;5039401;28;20455;-47
2023/03/24 06:12:27;;;;;;;7.83;4.80;;;11.70;99.90;;;;;;5036377;28;20555;-47
2023/03/24 06:14:53;;;;;;;6.57;4.90;;;11.70;99.90;;;;;;5036528;28;20428;-47
2023/03/24 06:17:20;;;;;;;5.10;4.60;;;11.80;99.90;;;;;;5035953;28;20670;-47
2023/03/24 06:19:48;;;;;;;5.90;5.30;;;11.70;99.90;;;;;;5036510;28;20182;-47
2023/03/24 06:22:17;;;;;;;9.20;4.90;;;11.70;99.90;;;;;;5036443;28;20420;-47
2023/03/24 06:24:43;;;;;;;5.00;4.43;;;11.80;99.90;;;;;;5036027;28;20431;-47
2023/03/24 06:27:10;;;;;;;7.37;5.20;;;11.70;99.90;;;;;;5035884;28;21117;-47
2023/03/24 06:29:36;;;;;;;5.03;4.53;;;11.80;99.90;;;;;;5036168;28;20429;-46
2023/03/24 06:32:04;;;;;;;5.10;4.60;;;11.80;99.90;;;;;;5036183;28;20443;-47
2023/03/24 06:34:31;;;;;;;4.83;4.33;;;11.80;99.90;;;;;;5035902;28;20198;-47
2023/03/24 06:36:56;;;;;;;5.03;4.37;;;11.80;99.90;;;;;;5036061;28;20461;-47
2023/03/24 06:39:22;;;;;;;6.60;4.30;;;11.90;99.90;;;;;;5035742;28;20494;-47
2023/03/24 06:41:48;;;;;;;6.60;4.40;;;11.80;99.90;;;;;;5035741;28;20186;-48
2023/03/24 06:44:14;;;;;;;4.87;4.37;;;11.90;99.90;;;;;;5035563;28;20479;-47
2023/03/24 06:46:40;;;;;;;5.10;4.60;;;11.90;99.90;;;;;;5035461;28;20217;-47
2023/03/24 06:49:06;;;;;;;4.33;3.90;;;11.90;99.90;;;;;;5035749;28;20483;-47
2023/03/24 06:51:31;;;;;;;5.40;4.17;;;11.90;99.90;;;;;;5035515;28;20463;-47
2023/03/24 06:53:58;;;;;;;4.83;4.33;;;11.90;99.90;;;;;;5035812;28;20650;-47
2023/03/24 06:56:24;;;;;;;5.40;4.00;;;12.00;99.90;;;;;;5035255;28;20691;-47
2023/03/24 06:58:50;;;;;;;5.47;4.43;;;12.00;99.90;;;;;;5035530;28;20463;-47
2023/03/24 07:01:16;;;;;;;5.07;4.60;;;12.00;99.90;;;;;;5035093;28;20692;-47
2023/03/24 07:03:42;;;;;;;9.97;5.13;;;12.10;99.90;;;;;;5035319;28;20421;-47
2023/03/24 07:06:08;;;;;;;6.17;5.57;;;12.00;99.90;;;;;;5035608;28;20186;-47
2023/03/24 07:08:34;;;;;;;5.00;4.60;;;12.00;99.90;;;;;;5035637;28;20408;-47
2023/03/24 07:11:01;;;;;;;6.40;4.47;;;12.00;99.90;;;;;;5035303;28;20478;-48
2023/03/24 07:13:27;;;;;;;4.13;3.83;;;12.00;99.90;;;;;;5035089;28;20436;-45
2023/03/24 07:15:53;;;;;;;5.03;4.20;;;12.00;99.90;;;;;;5035228;28;20417;-45
2023/03/24 07:18:18;;;;;;;4.30;2.93;;;11.90;99.90;;;;;;5035069;28;20806;-46
2023/03/24 07:20:44;;;;;;;3.77;3.23;;;11.90;99.90;;;;;;5035400;28;20190;-46
2023/03/24 07:23:12;;;;;;;3.60;3.30;;;11.90;99.90;;;;;;5034732;28;20269;-48
2023/03/24 07:25:41;;;;;;;3.93;3.50;;;11.90;99.90;;;;;;5034905;28;21179;-48
2023/03/24 07:28:07;;;;;;;6.00;3.30;;;12.00;99.90;;;;;;5035249;28;20421;-46
2023/03/24 07:30:34;;;;;;;3.80;3.03;;;12.20;45.80;;;;;;5035000;28;20413;-46
2023/03/24 07:33:01;;;;;;;2.60;2.40;;;12.10;1.00;;;;;;5034851;28;20251;-49
2023/03/24 07:35:27;;;;;;;3.20;2.40;;;12.10;99.90;;;;;;5035287;28;20420;-49
2023/03/24 07:37:57;;;;;;;6.50;3.00;;;12.10;99.90;;;;;;5034556;28;20567;-49
2023/03/24 07:40:23;;;;;;;4.47;2.17;;;12.10;99.90;;;;;;5035071;28;20458;-49
2023/03/24 07:42:49;;;;;;;3.37;2.00;;;12.10;95.70;;;;;;5034345;28;21053;-50
2023/03/24 07:45:15;;;;;;;5.93;2.00;;;12.30;1.00;;;;;;5034978;28;20552;-49
2023/03/24 07:47:43;;;;;;;4.20;1.80;;;12.30;99.90;;;;;;5034507;28;20395;-49
2023/03/24 07:50:09;;;;;;;3.53;2.03;;;12.30;79.50;;;;;;5034569;28;20208;-47
2023/03/24 07:52:40;;;;;;;5.50;2.07;;;12.30;36.70;;;;;;5034462;28;20417;-47
2023/03/24 07:55:09;;;;;;;9.13;2.53;;;12.40;99.90;;;;;;5034906;28;20440;-47
2023/03/24 07:57:36;;;;;;;3.00;1.83;;;13.20;1.00;;;;;;5034331;28;20472;-47
2023/03/24 08:00:13;;;;;;;3.80;2.07;;;13.80;99.90;;;;;;5034024;28;20850;-48
2023/03/24 08:02:39;;;;;;;4.60;1.67;;;14.00;1.00;;;;;;5034504;28;20944;-48
2023/03/24 08:05:05;;;;;;;4.70;1.60;;;14.10;1.00;;;;;;5033906;28;20502;-48
2023/03/24 08:07:30;;;;;;;7.20;1.90;;;14.30;1.00;;;;;;5034329;28;20268;-50
2023/03/24 08:09:56;;;;;;;6.13;1.93;;;14.40;99.90;;;;;;5034140;28;20623;-48
2023/03/24 08:12:21;;;;;;;6.77;1.93;;;14.60;1.00;;;;;;5034001;28;20181;-48
2023/03/24 08:14:47;;;;;;;6.40;1.90;;;14.90;99.90;;;;;;5033917;28;20197;-49
2023/03/24 08:17:12;;;;;;;3.63;1.60;;;15.30;99.90;;;;;;5034133;28;20213;-49
2023/03/24 08:19:38;;;;;;;10.10;1.90;;;15.40;10.30;;;;;;5034408;28;20182;-49
2023/03/24 08:22:03;;;;;;;4.23;1.63;;;14.90;1.00;;;;;;5033963;28;20229;-49
2023/03/24 08:24:29;;;;;;;5.13;1.93;;;14.50;1.00;;;;;;5033976;28;20236;-49
2023/03/24 08:26:57;;;;;;;8.00;2.10;;;14.30;1.00;;;;;;5032505;28;20650;-49
2023/03/24 08:29:23;;;;;;;4.77;2.13;;;14.10;1.00;;;;;;5034278;28;20186;-49
2023/03/24 08:31:49;;;;;;;6.67;1.73;;;14.00;5.70;;;;;;5033800;28;20916;-48
2023/03/24 08:34:14;;;;;;;9.50;1.93;;;13.90;5.00;;;;;;5033388;28;20174;-48
2023/03/24 08:36:40;;;;;;;6.73;1.60;;;13.70;12.20;;;;;;5033247;28;20225;-48
2023/03/24 08:39:09;;;;;;;7.27;1.83;;;13.40;55.70;;;;;;5033738;28;20526;-48
2023/03/24 08:41:35;;;;;;;6.35;1.60;;;13.00;32.70;;;;;;5032529;28;20393;-49
2023/03/24 08:44:02;;;;;;;11.73;2.57;;;12.80;70.20;;;;;;5030259;28;20252;-50
2023/03/24 08:46:29;;;;;;;9.27;1.60;;;12.80;75.80;;;;;;5033224;28;20421;-49
2023/03/24 08:48:56;;;;;;;7.00;1.70;;;12.80;67.90;;;;;;5033446;28;20418;-50
2023/03/24 08:51:22;;;;;;;14.23;2.23;;;12.90;99.00;;;;;;5033186;28;20417;-52
2023/03/24 08:53:50;;;;;;;8.43;1.77;;;13.20;80.50;;;;;;5033485;28;20772;-49
2023/03/24 08:56:15;;;;;;;5.57;2.33;;;13.20;33.60;;;;;;5033477;28;20464;-50
2023/03/24 08:58:41;;;;;;;6.17;2.27;;;13.60;2.50;;;;;;5033539;28;20427;-51
2023/03/24 09:01:07;;;;;;;5.90;1.83;;;14.40;1.00;;;;;;5033201;28;20185;-50
2023/03/24 09:03:34;;;;;;;8.80;2.20;;;14.90;1.00;;;;;;5033795;28;20194;-50
2023/03/24 09:06:00;;;;;;;4.37;2.13;;;14.90;1.00;;;;;;5033543;28;20467;-50
2023/03/24 09:08:26;;;;;;;8.80;1.80;;;14.60;1.00;;;;;;5033420;28;20881;-51
2023/03/24 09:10:52;;;;;;;7.27;2.00;;;14.90;1.00;;;;;;5033418;28;20192;-51
2023/03/24 09:13:18;;;;;;;12.00;2.20;;;15.40;1.00;;;;;;5033339;28;20650;-51
2023/03/24 09:15:50;;;;;;;4.07;1.80;;;15.40;1.00;;;;;;5033342;28;20565;-50
2023/03/24 09:18:16;;;;;;;4.83;1.80;;;15.30;1.00;;;;;;5033276;28;20568;-51
2023/03/24 09:20:43;;;;;;;9.00;1.80;;;14.90;1.00;;;;;;5033000;28;20897;-49
2023/03/24 09:23:09;;;;;;;8.70;2.10;;;14.50;1.00;;;;;;5033063;28;20424;-49
2023/03/24 09:25:34;;;;;;;8.43;2.13;;;14.00;1.00;;;;;;5033334;28;20417;-49
2023/03/24 09:28:01;;;;;;;8.93;1.90;;;13.60;1.00;;;;;;5033479;28;20186;-49
2023/03/24 09:30:27;;;;;;;13.83;2.30;;;13.30;1.00;;;;;;5033174;28;20654;-49
2023/03/24 09:32:52;;;;;;;8.60;2.03;;;13.10;1.00;;;;;;5033160;28;20423;-49
2023/03/24 09:35:18;;;;;;;7.90;2.13;;;13.10;1.00;;;;;;5033217;28;20190;-49
2023/03/24 09:37:44;;;;;;;10.20;2.17;;;13.10;1.00;;;;;;5033030;28;20218;-49
2023/03/24 09:40:22;;;;;;;12.17;2.10;;;12.80;1.00;;;;;;5032929;28;20547;-49
2023/03/24 09:43:10;;;;;;;7.07;2.40;;;12.80;1.00;;;;;;5033354;28;20780;-49
2023/03/24 09:45:47;;;;;;;8.53;3.13;;;12.80;1.00;;;;;;5033304;28;20429;-50
2023/03/24 09:48:27;;;;;;;12.13;3.57;;;12.90;1.00;;;;;;5034672;28;21172;-50
2023/03/24 09:51:04;;;;;;;9.53;2.67;;;12.90;1.00;;;;;;5036788;28;20423;-50
2023/03/24 09:53:46;;;;;;;5.83;2.10;;;12.80;1.00;;;;;;5036881;28;20499;-49
2023/03/24 09:56:21;;;;;;;10.67;2.70;;;12.80;1.00;;;;;;5036536;28;20484;-49
2023/03/24 09:59:02;;;;;;;11.83;2.23;;;12.80;1.00;;;;;;5035163;28;20432;-49
2023/03/24 10:01:27;;;;;;;5.53;1.90;;;12.80;1.00;;;;;;5036632;28;20920;-49
2023/03/24 10:03:57;;;;;;;7.37;2.10;;;12.60;1.00;;;;;;5036283;28;20424;-50
2023/03/24 10:06:25;;;;;;;10.10;3.03;;;12.50;1.00;;;;;;5036646;28;20201;-49
2023/03/24 10:09:22;;;;;;;4.80;2.20;;;12.50;1.00;;;;;;5036564;28;20413;-49
2023/03/24 10:12:04;;;;;;;8.97;2.33;;;12.60;1.00;;;;;;5036475;28;20424;-50
2023/03/24 10:14:35;;;;;;;5.13;1.87;;;12.80;1.00;;;;;;5036702;28;20748;-49
2023/03/24 10:17:34;;;;;;;9.30;2.60;;;12.90;1.00;;;;;;5035860;28;20460;-49
2023/03/24 10:20:14;;;;;;;7.13;2.50;;;13.00;1.00;;;;;;5036277;28;20419;-49
2023/03/24 10:22:58;;;;;;;9.23;2.70;;;13.10;1.00;;;;;;5036544;28;20416;-50
2023/03/24 10:25:55;;;;;;;7.87;1.90;;;13.20;1.00;;;;;;5036416;28;20405;-50
2023/03/24 10:28:26;;;;;;;7.60;2.63;;;13.20;1.00;;;;;;5036245;28;20830;-50
2023/03/24 10:30:53;;;;;;;12.27;2.90;;;13.20;1.00;;;;;;5036080;28;20409;-50
2023/03/24 10:33:19;;;;;;;7.20;2.10;;;13.10;1.00;;;;;;5035818;28;20421;-50
2023/03/24 10:36:08;;;;;;;8.73;2.30;;;13.30;1.00;;;;;;5036145;28;20413;-49
2023/03/24 10:38:34;;;;;;;9.40;2.03;;;13.30;1.00;;;;;;5035739;28;20635;-50
2023/03/24 10:41:00;;;;;;;8.00;2.00;;;13.10;1.00;;;;;;5035924;28;20942;-49
2023/03/24 10:43:27;;;;;;;9.20;2.27;;;13.00;1.00;;;;;;5035780;28;20512;-49
2023/03/24 10:45:55;;;;;;;6.53;2.10;;;13.00;1.00;;;;;;5035465;28;20892;-50
2023/03/24 10:48:43;;;;;;;10.67;2.00;;;13.10;1.00;;;;;;5035302;28;20917;-51
2023/03/24 10:51:43;;;;;;;7.87;2.60;;;13.40;1.00;;;;;;5031580;28;20444;-51
2023/03/24 10:54:29;;;;;;;5.47;1.70;;;13.60;1.00;;;;;;5031289;28;20528;-50
2023/03/24 10:56:59;;;;;;;10.20;2.13;;;13.70;1.00;;;;;;5035606;28;20464;-51
2023/03/24 10:59:31;;;;;;;7.67;1.87;;;14.30;1.00;;;;;;5035158;28;21118;-50
2023/03/24 11:02:14;;;;;;;6.03;1.67;;;15.00;1.00;;;;;;5035477;28;20436;-51
2023/03/24 11:04:44;;;;;;;10.27;2.43;;;15.40;1.00;;;;;;5035427;28;20409;-52
2023/03/24 11:07:21;;;;;;;5.73;2.03;;;15.50;1.00;;;;;;5034967;28;20433;-51
2023/03/24 11:10:05;;;;;;;11.97;2.00;;;15.40;1.00;;;;;;5035233;28;20444;-51
2023/03/24 11:12:34;;;;;;;8.80;1.90;;;15.60;1.00;;;;;;5035198;28;20413;-51
2023/03/24 11:15:22;;;;;;;14.30;2.20;;;15.60;1.00;;;;;;5035342;28;20504;-51
2023/03/24 11:17:55;;;;;;;12.27;2.30;;;15.30;1.00;;;;;;5034584;28;20473;-52
2023/03/24 11:20:33;;;;;;;11.73;2.07;;;14.80;1.00;;;;;;5034981;28;20846;-51
2023/03/24 11:23:05;;;;;;;6.70;1.80;;;15.10;1.00;;;;;;5035339;28;20408;-51
2023/03/24 11:25:34;;;;;;;4.43;1.80;;;16.10;1.00;;;;;;5035179;28;20425;-52
2023/03/24 11:28:14;;;;;;;12.70;2.37;;;16.80;1.00;;;;;;5035031;28;20759;-52
2023/03/24 11:30:51;;;;;;;5.47;2.07;;;16.90;1.00;;;;;;5035357;28;20409;-51
2023/03/24 11:33:32;;;;;;;6.53;1.83;;;17.40;1.00;;;;;;5034980;28;20413;-52
2023/03/24 11:36:02;;;;;;;8.70;1.87;;;17.70;1.00;;;;;;5034485;28;20777;-52
2023/03/24 11:38:30;;;;;;;18.27;2.83;;;18.10;1.00;;;;;;5035010;28;20500;-52
2023/03/24 11:40:58;;;;;;;6.57;1.73;;;17.90;1.00;;;;;;5034957;28;20421;-51
2023/03/24 11:43:26;;;;;;;7.13;1.90;;;17.40;1.00;;;;;;5034672;28;20428;-51
2023/03/24 11:46:00;;;;;;;12.27;2.60;;;16.50;1.00;;;;;;5035234;28;20401;-51
2023/03/24 11:48:51;;;;;;;12.40;4.67;;;15.80;1.00;;;;;;5034675;28;20409;-51
2023/03/24 11:51:30;;;;;;;14.77;3.50;;;15.30;1.00;;;;;;5035055;28;20408;-51
2023/03/24 11:53:58;;;;;;;9.33;2.37;;;14.90;1.00;;;;;;5034637;28;20412;-51
2023/03/24 11:56:40;;;;;;;8.17;2.37;;;14.40;1.00;;;;;;5034834;28;20471;-52
2023/03/24 11:59:29;;;;;;;7.27;2.07;;;14.60;1.00;;;;;;5034107;28;20467;-51
2023/03/24 12:02:15;;;;;;;13.07;2.20;;;15.50;1.00;;;;;;5034476;28;20438;-51
2023/03/24 12:04:54;;;;;;;9.73;2.40;;;15.30;1.00;;;;;;5034400;28;20467;-51
2023/03/24 12:07:57;;;;;;;7.60;1.87;;;15.20;1.00;;;;;;5034490;28;20408;-51
2023/03/24 12:10:29;;;;;;;9.87;2.00;;;15.90;1.00;;;;;;5033453;28;20420;-52
2023/03/24 12:13:17;;;;;;;8.73;2.97;;;17.30;1.00;;;;;;5034405;28;20409;-53
2023/03/24 12:16:12;;;;;;;8.73;2.33;;;17.60;1.00;;;;;;5034512;28;20475;-52
2023/03/24 12:19:07;;;;;;;10.20;2.23;;;17.90;1.00;;;;;;5034435;28;20422;-53
2023/03/24 12:21:53;;;;;;;8.83;2.27;;;17.30;1.00;;;;;;5034147;28;20421;-52
2023/03/24 12:24:37;;;;;;;22.13;3.13;;;16.50;1.00;;;;;;5033796;28;20429;-52
2023/03/24 12:27:03;;;;;;;7.63;2.20;;;16.20;1.00;;;;;;5033986;28;20458;-51
2023/03/24 12:29:58;;;;;;;12.60;2.37;;;16.80;1.00;;;;;;5034541;28;20416;-52
2023/03/24 12:32:32;;;;;;;20.23;2.73;;;17.50;1.00;;;;;;5033949;28;20170;-53
2023/03/24 12:35:01;;;;;;;6.90;2.50;;;17.60;1.00;;;;;;5034003;28;20542;-54
2023/03/24 12:37:41;;;;;;;9.20;2.57;;;18.20;1.00;;;;;;5033650;28;20802;-53
2023/03/24 12:40:09;;;;;;;8.57;2.40;;;18.10;1.00;;;;;;5033830;28;20804;-53
2023/03/24 12:42:40;;;;;;;8.30;2.47;;;17.00;1.00;;;;;;5033820;28;20512;-52
2023/03/24 12:45:33;;;;;;;9.60;2.90;;;16.10;1.00;;;;;;5032609;28;20530;-51
2023/03/24 12:48:29;;;;;;;13.70;3.33;;;15.40;1.00;;;;;;5033738;28;20402;-52
2023/03/24 12:51:36;;;;;;;8.83;2.00;;;15.80;1.00;;;;;;5034021;28;20759;-53
2023/03/24 12:54:14;;;;;;;10.10;2.60;;;17.10;1.00;;;;;;5032020;28;20808;-52
2023/03/24 12:56:45;;;;;;;14.03;2.60;;;17.50;1.00;;;;;;5033410;28;20558;-52
2023/03/24 12:59:20;;;;;;;8.40;2.13;;;17.90;1.00;;;;;;5033215;28;20939;-52
2023/03/24 13:01:51;;;;;;;10.80;2.70;;;18.50;1.00;;;;;;5033156;28;20404;-52
2023/03/24 13:04:26;;;;;;;11.90;2.80;;;19.10;1.00;;;;;;5033177;28;20405;-53
2023/03/24 13:07:14;;;;;;;9.40;2.50;;;19.40;1.00;;;;;;5033450;28;20417;-52
2023/03/24 13:10:05;;;;;;;9.77;2.13;;;19.30;1.00;;;;;;5033824;28;20468;-52
2023/03/24 13:12:36;;;;;;;8.33;2.10;;;19.60;1.00;;;;;;5032957;28;20421;-53
2023/03/24 13:15:09;;;;;;;5.03;1.93;;;19.70;1.00;;;;;;5033365;28;20810;-53